Startpagina
METAR-TAF:

METAR-TAF

Vliegvelden :

Bagdad, Irak

Internationale Luchthaven Baghdad

breedte: 33-15-45N, lengte: 44-14-04E, hoogte: 35 m

Actueel weer

Dit bericht is 8 minuten geleden gemaakt, om 00:00 UTC
Wind 4 kt uit het noordoosten
Temperatuur 27°C
Vochtigheid 28%
Druk 1008 hPa
Zicht: 9000 m

METAR: ORBI 290000Z 04004KT 9000 NSC 27/07 Q1008

Tijdstip: 03:08 (00:08 UTC)

Verwachting

Dit bericht is 2 uur en het 8 minuten geleden gemaakt, om 22:00 UTC
Verwachting geldig van 29 om 00 UTC tot 29 om 24 UTC
Wind 4 kt uit variabele richting
Zicht 10 km of meer
geen wolken onder 1500 m en geen cumulonimbus

TAF: ORBI 282200Z 2900/2924 VRB04KT CAVOK

Waarnemingen en weersverwachtingen van meer dan 4000 vliegvelden (METAR en TAF).

De beschikbare stations zijn de gele en rode punten op de kaart.

Ga met uw muis naar het station om de naam te zien.

Klik dan om waarnemingen en weersverwachtingen te zien.

kaart wijzigen: klik op de groene knoppen met een zwart kruis om in te zoomen, op de groene knop met een streepje om uit te zoomen of op de groene pijlen voor aangrenzende kaarten.


METAR-TAF: